Time;durP1;ratioP1;P1;durP2;ratioP2;P2;SDS_P1;SDS_P2;PMS_P1;PMS_P2;Temp;Humidity;BMP_temperature;BMP_pressure;BME280_temperature;BME280_humidity;BME280_pressure;Samples;Min_cycle;Max_cycle;Signal;HPM_P1;HPM_P2
2023/08/14 00:01:28;;;;;;;7.05;4.30;;;;;;;;;;5101015;28;20043;-57
2023/08/14 00:03:54;;;;;;;17.48;4.30;;;;;;;;;;5081785;28;20048;-58
2023/08/14 00:06:20;;;;;;;8.00;4.25;;;;;;;;;;5085950;28;20281;-57
2023/08/14 00:08:46;;;;;;;7.38;4.22;;;;;;;;;;5093649;28;20039;-57
2023/08/14 00:11:13;;;;;;;11.65;4.80;;;;;;;;;;5089220;28;20394;-57
2023/08/14 00:13:49;;;;;;;7.68;4.40;;;;;;;;;;5085437;28;20036;-57
2023/08/14 00:16:15;;;;;;;12.30;4.88;;;;;;;;;;5084105;28;20032;-57
2023/08/14 00:18:41;;;;;;;8.55;4.20;;;;;;;;;;5089843;28;20036;-57
2023/08/14 00:21:07;;;;;;;9.15;4.65;;;;;;;;;;5093113;28;20111;-57
2023/08/14 00:23:33;;;;;;;7.72;4.03;;;;;;;;;;5082756;28;20062;-57
2023/08/14 00:26:00;;;;;;;8.27;4.55;;;;;;;;;;5090481;28;20044;-57
2023/08/14 00:28:26;;;;;;;12.40;4.50;;;;;;;;;;5084633;28;20078;-57
2023/08/14 00:30:52;;;;;;;9.18;4.43;;;;;;;;;;5081209;28;20503;-57
2023/08/14 00:33:18;;;;;;;10.63;4.57;;;;;;;;;;5084551;28;20032;-57
2023/08/14 00:35:45;;;;;;;9.02;4.78;;;;;;;;;;5081869;28;20048;-57
2023/08/14 00:38:11;;;;;;;9.48;4.70;;;;;;;;;;5083510;28;20142;-58
2023/08/14 00:40:39;;;;;;;9.93;4.47;;;;;;;;;;5098991;28;20120;-57
2023/08/14 00:43:05;;;;;;;10.45;4.97;;;;;;;;;;5088296;28;20116;-57
2023/08/14 00:45:31;;;;;;;8.55;4.65;;;;;;;;;;5083005;28;20044;-57
2023/08/14 00:47:57;;;;;;;8.60;5.18;;;;;;;;;;5085897;28;20399;-57
2023/08/14 00:50:24;;;;;;;7.60;4.05;;;;;;;;;;5106860;28;20131;-57
2023/08/14 00:52:54;;;;;;;8.55;5.00;;;;;;;;;;5106772;28;20407;-58
2023/08/14 00:55:22;;;;;;;12.07;5.22;;;;;;;;;;5097406;28;20466;-57
2023/08/14 00:57:49;;;;;;;10.20;4.80;;;;;;;;;;5102761;28;20447;-58
2023/08/14 01:00:15;;;;;;;9.05;4.95;;;;;;;;;;5108001;28;20487;-57
2023/08/14 01:02:43;;;;;;;10.43;4.75;;;;;;;;;;5090456;28;20126;-57
2023/08/14 01:05:10;;;;;;;9.45;5.00;;;;;;;;;;5087211;28;20052;-57
2023/08/14 01:07:36;;;;;;;7.97;4.82;;;;;;;;;;5090606;28;20043;-57
2023/08/14 01:10:03;;;;;;;11.75;5.15;;;;;;;;;;5087410;28;20040;-57
2023/08/14 01:12:47;;;;;;;8.13;5.05;;;;;;;;;;5086203;28;20109;-58
2023/08/14 01:15:23;;;;;;;6.53;4.55;;;;;;;;;;5082649;28;20123;-57
2023/08/14 01:17:57;;;;;;;7.25;4.30;;;;;;;;;;5099016;28;20036;-57
2023/08/14 01:20:25;;;;;;;8.35;4.57;;;;;;;;;;5089666;28;20035;-57
2023/08/14 01:23:09;;;;;;;11.05;4.82;;;;;;;;;;5100380;28;20447;-57
2023/08/14 01:25:37;;;;;;;6.55;4.63;;;;;;;;;;5076959;28;20040;-57
2023/08/14 01:28:04;;;;;;;9.27;4.88;;;;;;;;;;5086433;28;20090;-57
2023/08/14 01:30:31;;;;;;;8.38;4.55;;;;;;;;;;5102670;28;20044;-57
2023/08/14 01:32:57;;;;;;;8.05;4.97;;;;;;;;;;5088472;28;20044;-57
2023/08/14 01:35:25;;;;;;;8.95;4.32;;;;;;;;;;5096463;28;20040;-57
2023/08/14 01:37:51;;;;;;;9.30;4.65;;;;;;;;;;5097955;28;20441;-57
2023/08/14 01:40:17;;;;;;;10.60;4.78;;;;;;;;;;5078653;28;20059;-58
2023/08/14 01:42:45;;;;;;;7.30;4.70;;;;;;;;;;5094802;28;20107;-57
2023/08/14 01:45:18;;;;;;;12.15;4.60;;;;;;;;;;5092932;28;20092;-57
2023/08/14 01:47:45;;;;;;;9.15;4.75;;;;;;;;;;5088299;28;20044;-57
2023/08/14 01:50:13;;;;;;;8.75;5.40;;;;;;;;;;5108574;28;20474;-57
2023/08/14 01:52:39;;;;;;;7.82;4.80;;;;;;;;;;5107648;28;20115;-57
2023/08/14 01:55:06;;;;;;;13.18;4.95;;;;;;;;;;5110325;28;20120;-57
2023/08/14 01:57:33;;;;;;;10.85;5.70;;;;;;;;;;5100073;28;20438;-57
2023/08/14 01:59:59;;;;;;;9.27;5.18;;;;;;;;;;5107333;28;20039;-57
2023/08/14 02:02:25;;;;;;;9.75;4.88;;;;;;;;;;5099389;28;20122;-57
2023/08/14 02:04:51;;;;;;;9.15;5.25;;;;;;;;;;5100318;28;20047;-57
2023/08/14 02:07:18;;;;;;;8.35;5.13;;;;;;;;;;5094696;28;20539;-57
2023/08/14 02:09:44;;;;;;;9.80;4.90;;;;;;;;;;5095735;28;20114;-57
2023/08/14 02:12:10;;;;;;;11.25;5.13;;;;;;;;;;5094495;28;20391;-57
2023/08/14 02:14:36;;;;;;;10.30;5.32;;;;;;;;;;5089865;28;20032;-57
2023/08/14 02:17:03;;;;;;;9.77;5.10;;;;;;;;;;5093314;28;20038;-58
2023/08/14 02:19:29;;;;;;;11.30;5.78;;;;;;;;;;5096630;28;20490;-57
2023/08/14 02:21:55;;;;;;;15.02;5.25;;;;;;;;;;5089188;28;20051;-57
2023/08/14 02:24:21;;;;;;;11.95;5.50;;;;;;;;;;5085673;28;20415;-57
2023/08/14 02:26:47;;;;;;;10.50;5.55;;;;;;;;;;5085796;28;20111;-57
2023/08/14 02:29:13;;;;;;;10.13;5.65;;;;;;;;;;5083623;28;20043;-57
2023/08/14 02:31:40;;;;;;;9.40;5.55;;;;;;;;;;5085099;28;20059;-57
2023/08/14 02:34:06;;;;;;;9.05;5.50;;;;;;;;;;5087287;28;20059;-57
2023/08/14 02:36:32;;;;;;;11.43;5.35;;;;;;;;;;5084863;28;20105;-57
2023/08/14 02:38:58;;;;;;;11.80;5.82;;;;;;;;;;5085379;28;20032;-57
2023/08/14 02:41:25;;;;;;;14.00;5.68;;;;;;;;;;5085448;28;20134;-57
2023/08/14 02:43:51;;;;;;;9.85;5.20;;;;;;;;;;5084626;28;20426;-57
2023/08/14 02:46:17;;;;;;;8.30;5.18;;;;;;;;;;5085093;28;20410;-57
2023/08/14 02:48:45;;;;;;;10.68;6.05;;;;;;;;;;5083892;28;20453;-58
2023/08/14 02:51:11;;;;;;;10.55;5.40;;;;;;;;;;5083964;28;20500;-57
2023/08/14 02:53:37;;;;;;;10.00;5.80;;;;;;;;;;5090422;28;20108;-57
2023/08/14 02:56:03;;;;;;;13.25;5.97;;;;;;;;;;5093873;28;20441;-58
2023/08/14 02:58:31;;;;;;;10.93;5.97;;;;;;;;;;5106715;28;20269;-57
2023/08/14 03:00:57;;;;;;;15.45;5.80;;;;;;;;;;5101510;28;20043;-57
2023/08/14 03:03:23;;;;;;;13.82;6.65;;;;;;;;;;5104438;28;20044;-57
2023/08/14 03:05:49;;;;;;;10.20;6.20;;;;;;;;;;5094520;28;20055;-57
2023/08/14 03:08:16;;;;;;;10.50;6.07;;;;;;;;;;5097360;28;20119;-57
2023/08/14 03:10:42;;;;;;;9.13;5.60;;;;;;;;;;5102067;27;20054;-57
2023/08/14 03:13:09;;;;;;;11.50;6.00;;;;;;;;;;5088746;28;20081;-58
2023/08/14 03:15:35;;;;;;;14.52;5.95;;;;;;;;;;5101227;28;20051;-57
2023/08/14 03:18:01;;;;;;;13.10;6.30;;;;;;;;;;5106606;28;20188;-57
2023/08/14 03:20:27;;;;;;;11.82;5.75;;;;;;;;;;5095179;28;20646;-57
2023/08/14 03:22:53;;;;;;;14.20;6.35;;;;;;;;;;5099974;28;20035;-57
2023/08/14 03:25:20;;;;;;;11.02;6.75;;;;;;;;;;5110922;28;20053;-58
2023/08/14 03:27:46;;;;;;;10.98;5.82;;;;;;;;;;5097044;28;20043;-57
2023/08/14 03:30:12;;;;;;;12.25;6.65;;;;;;;;;;5097586;28;20040;-57
2023/08/14 03:32:38;;;;;;;12.63;5.63;;;;;;;;;;5104454;28;20072;-57
2023/08/14 03:35:05;;;;;;;14.43;6.13;;;;;;;;;;5097055;28;20333;-57
2023/08/14 03:37:31;;;;;;;12.02;6.57;;;;;;;;;;5107929;28;20097;-57
2023/08/14 03:39:57;;;;;;;13.52;6.38;;;;;;;;;;5095808;28;20044;-57
2023/08/14 03:42:23;;;;;;;14.15;7.07;;;;;;;;;;5090117;28;20135;-57
2023/08/14 03:44:49;;;;;;;12.90;6.70;;;;;;;;;;5099283;28;20119;-57
2023/08/14 03:47:16;;;;;;;13.15;7.07;;;;;;;;;;5103219;28;20507;-57
2023/08/14 03:49:42;;;;;;;9.90;6.53;;;;;;;;;;5091226;28;20056;-57
2023/08/14 03:52:08;;;;;;;9.93;6.88;;;;;;;;;;5091787;28;20052;-57
2023/08/14 03:54:34;;;;;;;11.52;7.28;;;;;;;;;;5101693;28;20056;-57
2023/08/14 03:57:00;;;;;;;10.18;6.47;;;;;;;;;;5103938;28;20051;-58
2023/08/14 03:59:26;;;;;;;10.15;6.45;;;;;;;;;;5095342;28;20058;-57
2023/08/14 04:01:53;;;;;;;11.75;6.30;;;;;;;;;;5091057;28;20396;-58
2023/08/14 04:04:19;;;;;;;15.07;6.75;;;;;;;;;;5102540;28;20048;-58
2023/08/14 04:06:47;;;;;;;10.57;6.80;;;;;;;;;;5093628;28;20091;-57
2023/08/14 04:09:13;;;;;;;10.50;6.88;;;;;;;;;;5083066;28;20043;-58
2023/08/14 04:11:39;;;;;;;10.35;6.10;;;;;;;;;;5086720;28;20039;-57
2023/08/14 04:14:06;;;;;;;10.48;6.78;;;;;;;;;;5091571;28;20484;-56
2023/08/14 04:16:43;;;;;;;7.32;5.70;;;;;;;;;;5085770;28;20043;-57
2023/08/14 04:19:09;;;;;;;12.77;6.47;;;;;;;;;;5108443;28;20504;-58
2023/08/14 04:21:36;;;;;;;13.07;6.85;;;;;;;;;;5095041;28;20487;-57
2023/08/14 04:24:02;;;;;;;10.13;6.40;;;;;;;;;;5093441;28;20036;-57
2023/08/14 04:26:28;;;;;;;10.98;6.72;;;;;;;;;;5112155;28;20062;-57
2023/08/14 04:28:54;;;;;;;15.93;7.13;;;;;;;;;;5109198;28;20197;-57
2023/08/14 04:31:20;;;;;;;12.82;7.47;;;;;;;;;;5102656;28;20167;-57
2023/08/14 04:33:47;;;;;;;14.02;7.28;;;;;;;;;;5089666;28;20040;-57
2023/08/14 04:36:13;;;;;;;17.60;7.55;;;;;;;;;;5102080;28;20075;-57
2023/08/14 04:38:39;;;;;;;18.30;8.18;;;;;;;;;;5091474;28;20092;-57
2023/08/14 04:41:05;;;;;;;15.75;7.85;;;;;;;;;;5089866;28;20062;-57
2023/08/14 04:43:31;;;;;;;13.35;8.15;;;;;;;;;;5090051;28;20119;-58
2023/08/14 04:45:58;;;;;;;16.35;8.15;;;;;;;;;;5097237;28;20101;-57
2023/08/14 04:48:24;;;;;;;12.63;8.05;;;;;;;;;;5110175;28;20403;-57
2023/08/14 04:50:50;;;;;;;12.23;8.05;;;;;;;;;;5108417;28;20051;-57
2023/08/14 04:53:16;;;;;;;16.80;9.90;;;;;;;;;;5102449;28;20531;-58
2023/08/14 04:55:43;;;;;;;14.82;9.65;;;;;;;;;;5108351;28;20100;-57
2023/08/14 04:58:09;;;;;;;16.02;9.90;;;;;;;;;;5110656;28;20210;-57
2023/08/14 05:00:35;;;;;;;16.40;10.52;;;;;;;;;;5111606;28;20035;-57
2023/08/14 05:03:01;;;;;;;19.38;11.35;;;;;;;;;;5098807;28;20164;-57
2023/08/14 05:05:27;;;;;;;21.45;11.43;;;;;;;;;;5099668;28;20443;-58
2023/08/14 05:07:54;;;;;;;22.75;12.25;;;;;;;;;;5104492;28;20039;-57
2023/08/14 05:10:20;;;;;;;16.85;12.27;;;;;;;;;;5100365;28;20123;-57
2023/08/14 05:12:46;;;;;;;17.40;12.10;;;;;;;;;;5099717;28;20054;-57
2023/08/14 05:15:12;;;;;;;17.83;11.73;;;;;;;;;;5110991;28;20059;-57
2023/08/14 05:17:38;;;;;;;15.25;11.68;;;;;;;;;;5110029;28;20032;-57
2023/08/14 05:20:05;;;;;;;16.27;12.63;;;;;;;;;;5103341;28;20063;-57
2023/08/14 05:22:32;;;;;;;19.10;12.65;;;;;;;;;;5108503;28;20389;-57
2023/08/14 05:24:58;;;;;;;22.30;13.30;;;;;;;;;;5100809;28;20062;-57
2023/08/14 05:27:24;;;;;;;20.23;13.10;;;;;;;;;;5108186;28;20036;-57
2023/08/14 05:29:50;;;;;;;22.95;13.35;;;;;;;;;;5110996;28;20480;-58
2023/08/14 05:32:16;;;;;;;19.35;12.95;;;;;;;;;;5092380;28;20131;-56
2023/08/14 05:34:42;;;;;;;24.45;14.43;;;;;;;;;;5089213;28;20043;-57
2023/08/14 05:37:09;;;;;;;20.75;11.65;;;;;;;;;;5104255;28;20044;-58
2023/08/14 05:39:35;;;;;;;19.95;12.95;;;;;;;;;;5091470;28;20055;-57
2023/08/14 05:42:01;;;;;;;19.67;12.98;;;;;;;;;;5097578;28;20040;-57
2023/08/14 05:44:27;;;;;;;19.88;12.40;;;;;;;;;;5094179;28;20046;-57
2023/08/14 05:46:53;;;;;;;16.38;12.30;;;;;;;;;;5098671;28;20078;-57
2023/08/14 05:49:21;;;;;;;18.42;11.55;;;;;;;;;;5110598;28;20112;-57
2023/08/14 05:51:47;;;;;;;16.25;12.45;;;;;;;;;;5109569;28;20048;-57
2023/08/14 05:54:14;;;;;;;19.35;11.82;;;;;;;;;;5108869;28;20044;-57
2023/08/14 05:56:40;;;;;;;20.25;13.07;;;;;;;;;;5110658;28;20055;-57
2023/08/14 05:59:06;;;;;;;20.55;12.82;;;;;;;;;;5105127;28;20150;-57
2023/08/14 06:01:33;;;;;;;18.33;12.68;;;;;;;;;;5108463;28;20099;-57
2023/08/14 06:03:59;;;;;;;16.50;11.55;;;;;;;;;;5092363;28;20052;-57
2023/08/14 06:06:26;;;;;;;16.08;11.75;;;;;;;;;;5103829;28;20403;-57
2023/08/14 06:08:52;;;;;;;21.75;11.48;;;;;;;;;;5109993;28;20036;-57
2023/08/14 06:11:19;;;;;;;18.88;12.63;;;;;;;;;;5110820;28;20545;-57
2023/08/14 06:13:45;;;;;;;17.38;11.60;;;;;;;;;;5094785;28;20040;-57
2023/08/14 06:16:12;;;;;;;18.02;11.43;;;;;;;;;;5098705;28;20044;-57
2023/08/14 06:18:38;;;;;;;19.10;11.90;;;;;;;;;;5110422;28;20120;-57
2023/08/14 06:21:04;;;;;;;15.15;10.85;;;;;;;;;;5110602;28;20046;-57
2023/08/14 06:23:30;;;;;;;14.98;11.60;;;;;;;;;;5099162;28;20036;-57
2023/08/14 06:25:58;;;;;;;19.73;11.30;;;;;;;;;;5084391;28;20499;-57
2023/08/14 06:28:24;;;;;;;18.17;11.82;;;;;;;;;;5089396;28;20511;-57
2023/08/14 06:30:50;;;;;;;15.52;11.20;;;;;;;;;;5124820;27;20047;-58
2023/08/14 06:33:16;;;;;;;19.55;12.18;;;;;;;;;;5098419;28;20070;-57
2023/08/14 06:35:42;;;;;;;20.95;11.68;;;;;;;;;;5110451;27;20087;-57
2023/08/14 06:38:09;;;;;;;20.58;12.45;;;;;;;;;;5093575;28;20036;-57
2023/08/14 06:40:35;;;;;;;18.23;11.13;;;;;;;;;;5091237;28;20089;-57
2023/08/14 06:43:03;;;;;;;18.15;9.80;;;;;;;;;;5093362;28;20040;-57
2023/08/14 06:45:29;;;;;;;16.05;10.48;;;;;;;;;;5095635;28;20068;-57
2023/08/14 06:47:55;;;;;;;14.40;10.65;;;;;;;;;;5097815;28;20105;-57
2023/08/14 06:50:23;;;;;;;16.90;11.07;;;;;;;;;;5112295;28;20584;-58
2023/08/14 06:52:49;;;;;;;16.38;10.20;;;;;;;;;;5094951;28;20272;-58
2023/08/14 06:55:15;;;;;;;18.55;9.55;;;;;;;;;;5112984;28;20039;-57
2023/08/14 06:57:41;;;;;;;13.13;9.35;;;;;;;;;;5112865;28;20040;-57
2023/08/14 07:00:12;;;;;;;14.50;9.45;;;;;;;;;;5112172;28;20043;-57
2023/08/14 07:02:39;;;;;;;12.20;8.95;;;;;;;;;;5097867;28;20059;-57
2023/08/14 07:05:05;;;;;;;12.82;8.63;;;;;;;;;;5092862;28;20048;-57
2023/08/14 07:07:31;;;;;;;15.68;8.55;;;;;;;;;;5113402;28;20150;-57
2023/08/14 07:09:58;;;;;;;14.40;8.30;;;;;;;;;;5113285;28;20215;-58
2023/08/14 07:12:24;;;;;;;15.60;8.90;;;;;;;;;;5096779;28;20036;-57
2023/08/14 07:14:50;;;;;;;12.30;9.02;;;;;;;;;;5105875;28;20051;-58
2023/08/14 07:17:16;;;;;;;13.93;8.95;;;;;;;;;;5099991;28;20042;-58
2023/08/14 07:19:42;;;;;;;13.52;8.38;;;;;;;;;;5098247;28;20055;-58
2023/08/14 07:22:09;;;;;;;15.57;8.38;;;;;;;;;;5094073;28;20044;-58
2023/08/14 07:24:35;;;;;;;15.00;9.50;;;;;;;;;;5100925;27;20170;-58
2023/08/14 07:27:01;;;;;;;14.57;8.45;;;;;;;;;;5107160;28;20044;-58
2023/08/14 07:29:27;;;;;;;12.52;7.88;;;;;;;;;;5113300;27;20044;-58
2023/08/14 07:31:53;;;;;;;9.70;7.13;;;;;;;;;;5091521;28;20040;-57
2023/08/14 07:34:20;;;;;;;13.65;7.78;;;;;;;;;;5103196;28;20100;-58
2023/08/14 07:36:46;;;;;;;14.18;7.15;;;;;;;;;;5112924;28;20035;-58
2023/08/14 07:39:12;;;;;;;11.00;7.10;;;;;;;;;;5098646;28;20476;-57
2023/08/14 07:41:38;;;;;;;10.55;6.20;;;;;;;;;;5109018;28;20119;-58
2023/08/14 07:44:04;;;;;;;13.45;6.35;;;;;;;;;;5096670;28;20440;-58
2023/08/14 07:46:31;;;;;;;11.77;6.82;;;;;;;;;;5092478;28;20088;-58
2023/08/14 07:48:57;;;;;;;9.15;5.47;;;;;;;;;;5086992;28;20128;-58
2023/08/14 07:51:23;;;;;;;13.15;6.30;;;;;;;;;;5087962;28;20356;-58
2023/08/14 07:53:49;;;;;;;8.35;5.72;;;;;;;;;;5096109;28;20043;-57
2023/08/14 07:56:16;;;;;;;9.05;4.72;;;;;;;;;;5092398;28;20051;-58
2023/08/14 07:58:42;;;;;;;11.73;5.32;;;;;;;;;;5089913;28;20036;-57
2023/08/14 08:01:10;;;;;;;10.40;4.65;;;;;;;;;;5088524;28;20047;-58
2023/08/14 08:03:36;;;;;;;9.68;4.28;;;;;;;;;;5091648;28;20056;-57
2023/08/14 08:06:02;;;;;;;11.50;4.28;;;;;;;;;;5088449;28;20507;-58
2023/08/14 08:08:28;;;;;;;9.40;3.78;;;;;;;;;;5092715;28;20095;-58
2023/08/14 08:10:54;;;;;;;7.55;3.60;;;;;;;;;;5096742;28;20044;-58
2023/08/14 08:13:21;;;;;;;9.02;3.35;;;;;;;;;;5083823;28;20040;-58
2023/08/14 08:15:47;;;;;;;7.78;3.90;;;;;;;;;;5084123;28;20047;-58
2023/08/14 08:18:13;;;;;;;6.55;2.67;;;;;;;;;;5091094;28;20130;-58
2023/08/14 08:20:39;;;;;;;6.47;2.95;;;;;;;;;;5091553;28;20088;-58
2023/08/14 08:23:05;;;;;;;7.90;3.00;;;;;;;;;;5089576;28;20095;-58
2023/08/14 08:25:32;;;;;;;7.75;3.00;;;;;;;;;;5085762;28;20411;-58
2023/08/14 08:27:58;;;;;;;7.13;2.40;;;;;;;;;;5088544;28;20076;-58
2023/08/14 08:30:24;;;;;;;5.63;2.22;;;;;;;;;;5090428;28;20458;-58
2023/08/14 08:32:50;;;;;;;5.32;2.28;;;;;;;;;;5088384;28;20082;-58
2023/08/14 08:35:16;;;;;;;6.43;1.98;;;;;;;;;;5089974;28;20435;-58
2023/08/14 08:37:42;;;;;;;5.40;1.92;;;;;;;;;;5093855;28;20066;-57
2023/08/14 08:40:09;;;;;;;4.32;1.85;;;;;;;;;;5096944;28;20495;-57
2023/08/14 08:42:36;;;;;;;7.82;2.53;;;;;;;;;;5090166;28;20325;-58
2023/08/14 08:45:04;;;;;;;6.45;1.77;;;;;;;;;;5110494;28;20152;-58
2023/08/14 08:47:31;;;;;;;7.43;1.70;;;;;;;;;;5111468;28;20039;-57
2023/08/14 08:49:59;;;;;;;7.45;1.90;;;;;;;;;;5106625;28;20206;-57
2023/08/14 08:52:25;;;;;;;6.00;1.80;;;;;;;;;;5102181;28;20048;-58
2023/08/14 08:54:51;;;;;;;6.57;2.42;;;;;;;;;;5103442;28;20381;-57
2023/08/14 08:57:18;;;;;;;5.45;1.50;;;;;;;;;;5098814;28;20040;-58
2023/08/14 08:59:44;;;;;;;8.10;1.80;;;;;;;;;;5111086;28;20055;-58
2023/08/14 09:02:11;;;;;;;7.07;2.03;;;;;;;;;;5111427;28;20040;-58
2023/08/14 09:04:37;;;;;;;7.03;2.35;;;;;;;;;;5110384;28;20097;-57
2023/08/14 09:07:04;;;;;;;4.63;2.33;;;;;;;;;;5107369;28;20086;-58
2023/08/14 09:09:30;;;;;;;4.28;1.60;;;;;;;;;;5099852;28;20123;-58
2023/08/14 09:11:56;;;;;;;9.80;2.10;;;;;;;;;;5107149;28;20056;-57
2023/08/14 09:14:23;;;;;;;3.45;1.70;;;;;;;;;;5087258;28;20036;-57
2023/08/14 09:16:53;;;;;;;7.40;2.17;;;;;;;;;;5104787;28;20121;-57
2023/08/14 09:19:19;;;;;;;7.18;2.22;;;;;;;;;;5103197;28;20087;-57
2023/08/14 09:21:45;;;;;;;4.00;1.45;;;;;;;;;;5104158;28;20083;-57
2023/08/14 09:24:16;;;;;;;5.53;1.92;;;;;;;;;;5099276;28;20032;-57
2023/08/14 09:26:43;;;;;;;5.75;1.67;;;;;;;;;;5091412;28;20128;-57
2023/08/14 09:29:10;;;;;;;6.00;1.30;;;;;;;;;;5101258;28;20047;-56
2023/08/14 09:31:36;;;;;;;3.35;1.30;;;;;;;;;;5110087;28;20529;-57
2023/08/14 09:34:02;;;;;;;5.68;1.30;;;;;;;;;;5110673;28;20047;-57
2023/08/14 09:36:35;;;;;;;6.20;1.40;;;;;;;;;;5110457;28;20378;-57
2023/08/14 09:39:01;;;;;;;6.15;1.70;;;;;;;;;;5098533;28;20036;-57
2023/08/14 09:41:27;;;;;;;4.85;1.65;;;;;;;;;;5083013;28;20044;-57
2023/08/14 09:43:54;;;;;;;3.97;1.40;;;;;;;;;;5088711;28;20115;-57
2023/08/14 09:46:20;;;;;;;4.38;1.45;;;;;;;;;;5089092;28;20055;-56
2023/08/14 09:48:47;;;;;;;5.53;1.70;;;;;;;;;;5090075;28;20125;-57
2023/08/14 09:51:14;;;;;;;4.68;1.20;;;;;;;;;;5090035;28;20132;-56
2023/08/14 09:53:50;;;;;;;6.60;2.35;;;;;;;;;;5089729;28;20384;-57
2023/08/14 09:56:20;;;;;;;9.18;1.60;;;;;;;;;;5079648;28;20040;-57
2023/08/14 09:58:47;;;;;;;5.32;1.50;;;;;;;;;;5090038;28;20059;-57
2023/08/14 10:01:14;;;;;;;5.85;1.67;;;;;;;;;;5089055;28;20060;-57
2023/08/14 10:03:41;;;;;;;6.25;1.95;;;;;;;;;;5086573;28;20396;-57
2023/08/14 10:06:10;;;;;;;4.00;1.25;;;;;;;;;;5089787;28;20044;-57
2023/08/14 10:08:37;;;;;;;5.22;1.20;;;;;;;;;;5092001;28;20043;-56
2023/08/14 10:11:03;;;;;;;6.40;1.50;;;;;;;;;;5092840;28;20447;-57
2023/08/14 10:13:30;;;;;;;6.00;1.30;;;;;;;;;;5105581;28;20045;-57
2023/08/14 10:15:57;;;;;;;4.32;1.70;;;;;;;;;;5090467;28;20097;-57
2023/08/14 10:18:24;;;;;;;5.85;1.65;;;;;;;;;;5096181;28;20054;-57
2023/08/14 10:20:50;;;;;;;6.78;1.42;;;;;;;;;;5090678;28;20041;-57
2023/08/14 10:23:17;;;;;;;3.20;1.10;;;;;;;;;;5093827;28;20043;-57
2023/08/14 10:25:50;;;;;;;4.88;1.38;;;;;;;;;;5092374;28;20040;-58
2023/08/14 10:28:17;;;;;;;4.85;0.93;;;;;;;;;;5090291;28;20036;-57
2023/08/14 10:30:43;;;;;;;2.97;1.13;;;;;;;;;;5092425;28;20051;-57
2023/08/14 10:33:10;;;;;;;3.78;1.02;;;;;;;;;;5092613;28;20044;-57
2023/08/14 10:35:49;;;;;;;6.22;1.30;;;;;;;;;;5089517;28;20127;-57
2023/08/14 10:38:16;;;;;;;4.22;1.05;;;;;;;;;;5099753;28;20050;-58
2023/08/14 10:40:52;;;;;;;3.15;0.90;;;;;;;;;;5099318;28;21703;-57
2023/08/14 10:43:24;;;;;;;6.65;1.75;;;;;;;;;;5104801;27;20070;-58
2023/08/14 10:45:51;;;;;;;4.00;1.25;;;;;;;;;;5097490;28;20036;-58
2023/08/14 10:48:19;;;;;;;3.75;1.33;;;;;;;;;;5092793;28;20483;-57
2023/08/14 10:50:48;;;;;;;4.10;1.23;;;;;;;;;;5093293;28;20056;-57
2023/08/14 10:53:15;;;;;;;5.45;1.55;;;;;;;;;;5102117;28;20048;-58
2023/08/14 10:55:44;;;;;;;4.65;1.33;;;;;;;;;;5104562;28;20111;-58
2023/08/14 10:58:31;;;;;;;3.70;1.23;;;;;;;;;;5100210;28;20063;-58
2023/08/14 11:01:01;;;;;;;3.35;1.10;;;;;;;;;;5086745;28;20081;-59
2023/08/14 11:03:28;;;;;;;4.03;0.90;;;;;;;;;;5097352;28;20051;-58
2023/08/14 11:05:54;;;;;;;3.00;1.05;;;;;;;;;;5093482;28;20156;-58
2023/08/14 11:08:21;;;;;;;4.28;1.00;;;;;;;;;;5091999;28;20463;-58
2023/08/14 11:10:49;;;;;;;5.03;1.42;;;;;;;;;;5093534;28;20039;-58
2023/08/14 11:13:15;;;;;;;3.08;1.13;;;;;;;;;;5087877;28;20070;-58
2023/08/14 11:15:42;;;;;;;4.43;1.10;;;;;;;;;;5089095;28;20095;-58
2023/08/14 11:18:09;;;;;;;3.40;1.10;;;;;;;;;;5085831;28;20032;-58
2023/08/14 11:20:39;;;;;;;6.07;1.27;;;;;;;;;;5090863;28;20138;-58
2023/08/14 11:23:08;;;;;;;3.80;1.10;;;;;;;;;;5089184;28;20116;-59
2023/08/14 11:25:34;;;;;;;4.97;1.70;;;;;;;;;;5090783;28;20389;-58
2023/08/14 11:28:01;;;;;;;6.53;1.27;;;;;;;;;;5089816;28;20134;-58
2023/08/14 11:30:31;;;;;;;3.35;0.82;;;;;;;;;;5084661;28;20054;-59
2023/08/14 11:32:57;;;;;;;4.35;0.88;;;;;;;;;;5088548;28;20070;-58
2023/08/14 11:35:25;;;;;;;4.57;0.90;;;;;;;;;;5096698;28;20388;-57
2023/08/14 11:37:52;;;;;;;7.15;1.35;;;;;;;;;;5094050;28;20058;-58
2023/08/14 11:40:18;;;;;;;3.10;0.90;;;;;;;;;;5102906;28;20120;-59
2023/08/14 11:42:44;;;;;;;6.97;1.52;;;;;;;;;;5093297;28;20075;-58
2023/08/14 11:45:11;;;;;;;5.63;1.25;;;;;;;;;;5100637;28;20517;-59
2023/08/14 11:47:39;;;;;;;4.15;1.00;;;;;;;;;;5100516;28;20055;-59
2023/08/14 11:50:06;;;;;;;5.22;1.13;;;;;;;;;;5111264;28;20044;-58
2023/08/14 11:52:33;;;;;;;4.70;1.40;;;;;;;;;;5111626;28;20399;-59
2023/08/14 11:54:59;;;;;;;3.90;1.20;;;;;;;;;;5112269;28;20164;-59
2023/08/14 11:57:26;;;;;;;3.53;0.82;;;;;;;;;;5103290;28;20096;-59
2023/08/14 11:59:54;;;;;;;3.65;0.90;;;;;;;;;;5097032;28;20052;-58
2023/08/14 12:02:20;;;;;;;4.93;1.20;;;;;;;;;;5109308;28;20028;-58
2023/08/14 12:04:52;;;;;;;4.47;1.00;;;;;;;;;;5109710;28;20499;-59
2023/08/14 12:07:19;;;;;;;3.83;1.23;;;;;;;;;;5111709;28;20132;-58
2023/08/14 12:09:45;;;;;;;4.25;1.20;;;;;;;;;;5112253;28;20051;-58
2023/08/14 12:12:12;;;;;;;3.65;0.90;;;;;;;;;;5112020;28;20514;-58
2023/08/14 12:14:41;;;;;;;4.63;1.10;;;;;;;;;;5111187;28;20477;-58
2023/08/14 12:17:10;;;;;;;4.78;1.52;;;;;;;;;;5100026;28;20534;-58
2023/08/14 12:19:36;;;;;;;3.53;1.00;;;;;;;;;;5100976;28;20085;-58
2023/08/14 12:22:03;;;;;;;3.25;0.95;;;;;;;;;;5111094;28;20046;-58
2023/08/14 12:24:42;;;;;;;3.10;1.10;;;;;;;;;;5111890;28;20044;-58
2023/08/14 12:27:34;;;;;;;5.25;1.08;;;;;;;;;;5104960;28;20062;-58
2023/08/14 12:30:01;;;;;;;4.03;0.93;;;;;;;;;;5092920;28;20135;-59
2023/08/14 12:32:27;;;;;;;5.22;1.20;;;;;;;;;;5098265;28;20047;-59
2023/08/14 12:34:53;;;;;;;4.13;0.95;;;;;;;;;;5101491;28;20134;-59
2023/08/14 12:37:20;;;;;;;5.63;1.13;;;;;;;;;;5105654;28;20048;-59
2023/08/14 12:39:56;;;;;;;5.25;1.20;;;;;;;;;;5111768;28;20043;-58
2023/08/14 12:42:23;;;;;;;3.47;1.10;;;;;;;;;;5105385;28;20036;-59
2023/08/14 12:44:51;;;;;;;6.90;1.20;;;;;;;;;;5108722;28;20534;-58
2023/08/14 12:47:18;;;;;;;4.55;1.20;;;;;;;;;;5103650;28;20047;-59
2023/08/14 12:49:44;;;;;;;3.83;1.20;;;;;;;;;;5106155;28;20420;-59
2023/08/14 12:52:10;;;;;;;6.97;1.17;;;;;;;;;;5103896;28;20052;-59
2023/08/14 12:54:36;;;;;;;3.92;1.00;;;;;;;;;;5091289;28;20040;-59
2023/08/14 12:57:02;;;;;;;2.83;1.10;;;;;;;;;;5077494;28;20072;-58
2023/08/14 12:59:29;;;;;;;3.72;1.05;;;;;;;;;;5103265;28;20096;-59
2023/08/14 13:01:55;;;;;;;4.13;1.20;;;;;;;;;;5111206;28;20048;-58
2023/08/14 13:04:21;;;;;;;3.65;1.08;;;;;;;;;;5110452;28;20039;-59
2023/08/14 13:06:47;;;;;;;4.07;1.20;;;;;;;;;;5111097;28;20048;-59
2023/08/14 13:09:13;;;;;;;5.70;1.10;;;;;;;;;;5108854;28;20045;-58
2023/08/14 13:11:40;;;;;;;4.25;1.20;;;;;;;;;;5104240;28;20394;-59
2023/08/14 13:14:06;;;;;;;4.75;1.17;;;;;;;;;;5111153;28;20047;-59
2023/08/14 13:16:33;;;;;;;4.32;1.17;;;;;;;;;;5107971;28;20434;-59
2023/08/14 13:18:59;;;;;;;4.30;1.40;;;;;;;;;;5104333;28;20040;-59
2023/08/14 13:21:25;;;;;;;4.97;1.50;;;;;;;;;;5090312;28;20119;-59
2023/08/14 13:23:51;;;;;;;6.03;1.58;;;;;;;;;;5094148;28;20044;-58
2023/08/14 13:26:17;;;;;;;4.25;1.40;;;;;;;;;;5111167;28;20049;-58
2023/08/14 13:28:44;;;;;;;5.85;1.80;;;;;;;;;;5106612;28;20075;-58
2023/08/14 13:31:10;;;;;;;4.72;1.55;;;;;;;;;;5110221;28;20039;-58
2023/08/14 13:33:36;;;;;;;5.72;1.48;;;;;;;;;;5110911;28;20056;-58
2023/08/14 13:36:05;;;;;;;6.78;1.40;;;;;;;;;;5100002;28;20040;-58
2023/08/14 13:38:32;;;;;;;4.90;1.25;;;;;;;;;;5110189;28;20213;-58
2023/08/14 13:40:58;;;;;;;5.20;1.40;;;;;;;;;;5111919;28;20431;-59
2023/08/14 13:43:24;;;;;;;6.20;1.95;;;;;;;;;;5115005;28;20055;-58
2023/08/14 13:45:51;;;;;;;7.38;2.13;;;;;;;;;;5114406;28;20042;-58
2023/08/14 13:48:17;;;;;;;6.07;1.80;;;;;;;;;;5101822;28;20048;-58
2023/08/14 13:50:43;;;;;;;6.15;1.63;;;;;;;;;;5109947;28;20097;-59
2023/08/14 13:53:10;;;;;;;5.70;1.48;;;;;;;;;;5113977;27;20402;-58
2023/08/14 13:55:36;;;;;;;6.93;1.92;;;;;;;;;;5114652;27;20036;-59
2023/08/14 13:58:02;;;;;;;6.28;1.63;;;;;;;;;;5114679;28;20075;-59
2023/08/14 14:00:29;;;;;;;5.88;2.08;;;;;;;;;;5114126;28;20040;-58
2023/08/14 14:02:55;;;;;;;6.07;1.83;;;;;;;;;;5103424;28;20462;-58
2023/08/14 14:05:22;;;;;;;5.78;1.60;;;;;;;;;;5099171;28;20047;-58
2023/08/14 14:07:48;;;;;;;6.40;1.83;;;;;;;;;;5114054;28;20487;-59
2023/08/14 14:10:14;;;;;;;7.13;1.98;;;;;;;;;;5114498;27;20055;-58
2023/08/14 14:12:40;;;;;;;7.97;1.90;;;;;;;;;;5113800;28;20076;-59
2023/08/14 14:15:06;;;;;;;6.45;2.00;;;;;;;;;;5112812;28;20463;-59
2023/08/14 14:17:33;;;;;;;4.68;1.70;;;;;;;;;;5104322;27;20400;-59
2023/08/14 14:20:00;;;;;;;5.05;1.88;;;;;;;;;;5092981;28;20063;-58
2023/08/14 14:22:26;;;;;;;5.40;1.95;;;;;;;;;;5113291;28;20123;-58
2023/08/14 14:24:53;;;;;;;5.75;2.05;;;;;;;;;;5114343;28;20173;-58
2023/08/14 14:27:19;;;;;;;8.48;2.60;;;;;;;;;;5113328;28;20062;-58
2023/08/14 14:29:45;;;;;;;6.20;2.42;;;;;;;;;;5104145;28;20518;-59
2023/08/14 14:32:11;;;;;;;5.05;1.98;;;;;;;;;;5097584;28;20036;-59
2023/08/14 14:34:37;;;;;;;7.22;2.35;;;;;;;;;;5110923;28;20046;-59